Time;durP1;ratioP1;P1;durP2;ratioP2;P2;SDS_P1;SDS_P2;PMS_P1;PMS_P2;Temp;Humidity;BMP_temperature;BMP_pressure;BME280_temperature;BME280_humidity;BME280_pressure;Samples;Min_cycle;Max_cycle;Signal;HPM_P1;HPM_P2
2022/09/09 00:02:20;;;;;;;1.80;1.13;;;;;;;16.85;100.00;99860.94;4965784;28;20206;-76
2022/09/09 00:05:10;;;;;;;2.53;1.40;;;;;;;16.89;100.00;99859.03;4967984;28;20214;-75
2022/09/09 00:07:46;;;;;;;2.83;1.40;;;;;;;16.89;100.00;99864.28;4968333;28;20655;-76
2022/09/09 00:10:18;;;;;;;1.90;1.33;;;;;;;16.89;100.00;99866.88;4965415;28;20285;-77
2022/09/09 00:12:43;;;;;;;1.50;1.30;;;;;;;16.89;100.00;99866.88;4975173;28;20194;-76
2022/09/09 00:15:13;;;;;;;1.43;1.33;;;;;;;16.89;100.00;99859.91;4968078;28;20248;-75
2022/09/09 00:17:52;;;;;;;2.10;1.20;;;;;;;16.91;100.00;99865.94;4966892;28;20316;-78
2022/09/09 00:20:43;;;;;;;1.50;1.40;;;;;;;16.94;100.00;99848.41;4970591;28;20284;-75
2022/09/09 00:23:27;;;;;;;2.33;1.53;;;;;;;16.92;100.00;99862.41;4968116;28;20681;-77
2022/09/09 00:26:10;;;;;;;2.73;1.33;;;;;;;16.94;100.00;99853.66;4987927;28;20470;-75
2022/09/09 00:28:45;;;;;;;2.73;1.60;;;;;;;16.96;100.00;99854.44;4973851;28;20229;-79
2022/09/09 00:31:14;;;;;;;2.50;1.53;;;;;;;16.96;100.00;99857.91;4971921;28;20194;-76
2022/09/09 00:33:42;;;;;;;2.70;1.63;;;;;;;16.98;100.00;99850.00;4971382;28;20228;-78
2022/09/09 00:36:15;;;;;;;1.57;1.33;;;;;;;16.98;100.00;99844.78;4964984;28;20198;-79
2022/09/09 00:38:47;;;;;;;2.40;1.50;;;;;;;16.96;100.00;99850.06;4967632;28;20277;-78
2022/09/09 00:41:12;;;;;;;2.33;1.67;;;;;;;16.96;100.00;99857.91;4971627;28;20263;-79
2022/09/09 00:43:40;;;;;;;2.17;1.50;;;;;;;16.96;100.00;99857.03;4962380;28;20657;-80
2022/09/09 00:46:24;;;;;;;4.13;1.63;;;;;;;16.99;100.00;99864.75;4975019;28;20208;-75
2022/09/09 00:49:13;;;;;;;2.93;1.50;;;;;;;16.97;100.00;99861.38;4977950;28;20209;-76
2022/09/09 00:51:50;;;;;;;3.97;1.80;;;;;;;16.96;100.00;99868.38;4970359;28;20191;-78
2022/09/09 00:54:59;;;;;;;4.60;1.60;;;;;;;16.94;100.00;99867.56;4973227;28;20188;-78
2022/09/09 00:57:31;;;;;;;3.10;1.50;;;;;;;16.92;100.00;99869.38;4957284;28;20227;-77
2022/09/09 01:00:05;;;;;;;2.30;1.57;;;;;;;16.94;100.00;99877.16;4967822;28;20289;-78
2022/09/09 01:02:33;;;;;;;3.00;1.60;;;;;;;16.96;100.00;99886.66;4969768;28;20329;-79
2022/09/09 01:05:10;;;;;;;2.70;1.60;;;;;;;17.01;100.00;99889.09;4975330;28;20207;-76
2022/09/09 01:07:36;;;;;;;4.07;1.70;;;;;;;17.06;100.00;99900.22;4973445;28;20206;-76
2022/09/09 01:10:12;;;;;;;3.30;1.30;;;;;;;17.14;100.00;99907.72;4973142;28;20654;-75
2022/09/09 01:12:44;;;;;;;3.57;1.40;;;;;;;17.21;100.00;99924.84;4963001;28;20600;-76
2022/09/09 01:15:19;;;;;;;4.10;1.50;;;;;;;17.28;100.00;99913.22;4967957;28;20566;-76
2022/09/09 01:17:53;;;;;;;2.00;1.30;;;;;;;17.30;100.00;99923.59;4972514;28;20621;-78
2022/09/09 01:20:25;;;;;;;1.77;1.10;;;;;;;17.27;100.00;99934.19;4970509;28;20230;-77
2022/09/09 01:23:16;;;;;;;2.73;1.30;;;;;;;17.25;100.00;99926.41;4974441;28;20194;-77
2022/09/09 01:25:44;;;;;;;3.27;1.40;;;;;;;17.15;100.00;99912.88;4969679;28;20217;-78
2022/09/09 01:28:15;;;;;;;3.10;1.33;;;;;;;17.06;100.00;99919.34;4972075;28;20317;-75
2022/09/09 01:30:42;;;;;;;3.03;1.50;;;;;;;17.03;100.00;99914.22;4972531;28;20196;-76
2022/09/09 01:33:13;;;;;;;3.33;1.70;;;;;;;16.96;100.00;99919.78;4977198;28;20185;-77
2022/09/09 01:35:54;;;;;;;5.13;2.00;;;;;;;16.89;100.00;99916.53;4969229;28;20178;-78
2022/09/09 01:38:21;;;;;;;3.37;1.60;;;;;;;16.83;100.00;99915.03;4972857;28;20225;-77
2022/09/09 01:40:46;;;;;;;3.97;1.40;;;;;;;16.75;100.00;99909.28;4976745;28;20328;-78
2022/09/09 01:43:12;;;;;;;2.67;1.50;;;;;;;16.70;100.00;99908.59;4973787;28;20731;-77
2022/09/09 01:45:41;;;;;;;3.33;1.80;;;;;;;16.63;100.00;99894.94;4972401;28;20223;-75
2022/09/09 01:48:06;;;;;;;3.07;1.10;;;;;;;16.55;100.00;99889.19;4976474;28;20221;-76
2022/09/09 01:50:32;;;;;;;3.00;1.17;;;;;;;16.48;100.00;99883.38;4972590;28;20199;-75
2022/09/09 01:52:58;;;;;;;1.50;1.10;;;;;;;16.44;100.00;99887.00;4972454;28;20341;-75
2022/09/09 01:55:39;;;;;;;1.70;1.03;;;;;;;16.39;100.00;99878.50;4972047;28;20186;-75
2022/09/09 01:58:07;;;;;;;2.23;1.30;;;;;;;16.29;100.00;99871.03;4969522;28;20226;-76
2022/09/09 02:00:41;;;;;;;1.70;1.20;;;;;;;16.24;100.00;99872.97;4968033;28;20390;-76
2022/09/09 02:03:26;;;;;;;1.63;0.97;;;;;;;16.13;100.00;99857.72;4967632;28;20200;-76
2022/09/09 02:05:59;;;;;;;2.57;0.93;;;;;;;16.10;100.00;99855.25;4969667;28;20252;-76
2022/09/09 02:08:36;;;;;;;2.50;1.10;;;;;;;16.06;100.00;99860.63;4972386;28;20216;-75
2022/09/09 02:11:06;;;;;;;2.23;0.90;;;;;;;16.02;100.00;99853.84;4971185;28;20212;-77
2022/09/09 02:13:36;;;;;;;1.37;1.00;;;;;;;16.00;100.00;99864.31;4966768;28;20288;-77
2022/09/09 02:16:08;;;;;;;2.33;1.27;;;;;;;15.98;100.00;99853.97;4967054;28;20186;-79
2022/09/09 02:18:46;;;;;;;1.50;0.90;;;;;;;15.96;100.00;99855.78;4969602;28;20186;-77
2022/09/09 02:21:13;;;;;;;3.27;1.33;;;;;;;15.94;100.00;99849.75;4972125;28;20240;-77
2022/09/09 02:23:41;;;;;;;2.57;1.00;;;;;;;15.93;100.00;99852.44;4976726;28;20224;-78
2022/09/09 02:26:10;;;;;;;1.57;0.93;;;;;;;15.92;100.00;99845.50;4968732;28;20572;-76
2022/09/09 02:28:38;;;;;;;2.10;1.20;;;;;;;15.91;100.00;99836.81;4969083;28;20197;-73
2022/09/09 02:31:05;;;;;;;3.77;1.40;;;;;;;15.89;100.00;99845.63;4969078;28;20186;-74
2022/09/09 02:33:35;;;;;;;1.73;1.00;;;;;;;15.86;100.00;99836.16;4971786;28;20252;-78
2022/09/09 02:36:03;;;;;;;1.80;1.00;;;;;;;15.82;100.00;99834.53;4964757;28;20265;-77
2022/09/09 02:38:34;;;;;;;0.90;0.90;;;;;;;15.77;100.00;99832.09;4973673;28;20193;-78
2022/09/09 02:41:01;;;;;;;2.17;0.90;;;;;;;15.74;100.00;99845.25;4971846;28;20614;-77
2022/09/09 02:43:31;;;;;;;2.30;1.20;;;;;;;15.69;100.00;99837.63;4965780;28;20237;-78
2022/09/09 02:46:03;;;;;;;1.07;0.83;;;;;;;15.65;100.00;99840.41;4986580;28;20304;-79
2022/09/09 02:48:49;;;;;;;2.40;1.10;;;;;;;15.61;100.00;99841.41;4967880;28;20268;-77
2022/09/09 02:51:27;;;;;;;2.00;0.97;;;;;;;15.56;100.00;99838.97;4969672;28;20200;-75
2022/09/09 02:54:26;;;;;;;0.50;0.50;;;;;;;15.52;100.00;99838.22;4969458;28;20217;-75
2022/09/09 02:56:56;;;;;;;1.83;0.87;;;;;;;15.50;100.00;99832.22;4972103;28;20206;-76
2022/09/09 02:59:22;;;;;;;1.73;1.20;;;;;;;15.52;100.00;99840.81;4972238;28;20202;-78
2022/09/09 03:01:47;;;;;;;2.73;1.43;;;;;;;15.55;100.00;99845.94;4972318;28;20194;-78
2022/09/09 03:04:13;;;;;;;1.43;0.80;;;;;;;15.58;100.00;99844.13;4973167;28;20253;-76
2022/09/09 03:06:38;;;;;;;1.20;1.10;;;;;;;15.61;100.00;99844.03;4964485;28;20213;-76
2022/09/09 03:09:04;;;;;;;4.00;1.30;;;;;;;15.62;100.00;99846.56;4966573;28;20190;-76
2022/09/09 03:11:29;;;;;;;4.40;1.63;;;;;;;15.63;100.00;99842.22;4964637;28;20193;-75
2022/09/09 03:13:55;;;;;;;1.60;1.00;;;;;;;15.64;100.00;99844.75;4969940;28;20778;-77
2022/09/09 03:16:24;;;;;;;2.03;1.10;;;;;;;15.67;100.00;99844.66;4968607;28;20190;-75
2022/09/09 03:18:50;;;;;;;1.57;0.97;;;;;;;15.66;100.00;99855.97;4971844;28;20804;-75
2022/09/09 03:21:15;;;;;;;1.73;1.07;;;;;;;15.65;100.00;99846.44;4965523;28;20620;-77
2022/09/09 03:23:41;;;;;;;1.53;1.00;;;;;;;15.61;100.00;99844.84;4962701;28;20192;-74
2022/09/09 03:26:07;;;;;;;1.80;1.00;;;;;;;15.58;100.00;99842.34;4961507;28;20569;-75
2022/09/09 03:28:32;;;;;;;1.17;1.00;;;;;;;15.54;100.00;99854.66;4969429;28;20197;-74
2022/09/09 03:31:03;;;;;;;1.43;0.90;;;;;;;15.53;100.00;99852.97;4964320;28;20201;-75
2022/09/09 03:33:29;;;;;;;1.70;0.90;;;;;;;15.49;100.00;99842.72;4969504;28;20559;-75
2022/09/09 03:35:56;;;;;;;1.40;1.00;;;;;;;15.48;100.00;99848.81;4965785;28;20212;-78
2022/09/09 03:38:23;;;;;;;1.43;1.00;;;;;;;15.46;100.00;99858.47;4959929;28;20632;-76
2022/09/09 03:40:55;;;;;;;2.77;0.97;;;;;;;15.43;100.00;99853.38;4960185;28;20189;-76
2022/09/09 03:43:25;;;;;;;2.10;0.70;;;;;;;15.39;100.00;99847.41;4968403;28;20194;-77
2022/09/09 03:45:51;;;;;;;0.90;0.70;;;;;;;15.37;100.00;99851.81;4967455;28;20308;-76
2022/09/09 03:48:17;;;;;;;1.77;0.80;;;;;;;15.37;100.00;99850.06;4965494;28;20295;-74
2022/09/09 03:50:50;;;;;;;1.30;0.70;;;;;;;15.41;100.00;99850.81;4969017;28;20244;-73
2022/09/09 03:53:17;;;;;;;1.30;0.70;;;;;;;15.45;100.00;99844.59;4970867;28;20291;-74
2022/09/09 03:55:47;;;;;;;1.03;0.80;;;;;;;15.48;100.00;99836.66;4972557;28;20188;-75
2022/09/09 03:58:14;;;;;;;1.77;0.83;;;;;;;15.56;100.00;99846.81;4972619;28;20219;-74
2022/09/09 04:00:42;;;;;;;2.33;1.00;;;;;;;15.62;100.00;99849.16;4977710;28;20855;-74
2022/09/09 04:03:11;;;;;;;2.17;0.80;;;;;;;15.68;100.00;99850.69;4977041;28;20279;-76
2022/09/09 04:05:39;;;;;;;1.00;0.77;;;;;;;15.75;100.00;99851.31;4976979;28;20757;-75
2022/09/09 04:08:06;;;;;;;1.47;0.70;;;;;;;15.79;100.00;99851.16;4978465;28;20212;-75
2022/09/09 04:10:31;;;;;;;1.10;0.70;;;;;;;15.84;100.00;99851.81;4987490;28;20215;-74
2022/09/09 04:12:56;;;;;;;1.23;0.77;;;;;;;15.89;100.00;99864.72;4991915;28;20680;-77
2022/09/09 04:15:22;;;;;;;2.73;0.70;;;;;;;15.89;100.00;99861.28;4971228;28;20504;-74
2022/09/09 04:17:47;;;;;;;1.27;0.60;;;;;;;15.91;100.00;99862.06;4979893;28;20220;-75
2022/09/09 04:20:12;;;;;;;2.90;1.07;;;;;;;15.93;100.00;99863.72;4981572;28;20190;-74
2022/09/09 04:22:38;;;;;;;2.93;0.90;;;;;;;15.96;100.00;99860.13;4974642;28;20733;-75
2022/09/09 04:25:05;;;;;;;1.23;0.77;;;;;;;15.97;100.00;99862.69;4975423;28;20205;-76
2022/09/09 04:27:31;;;;;;;2.10;0.80;;;;;;;15.99;100.00;99866.09;4978727;28;20227;-76
2022/09/09 04:29:57;;;;;;;2.13;0.90;;;;;;;16.02;100.00;99862.50;4968568;28;20182;-76
2022/09/09 04:32:23;;;;;;;3.07;0.90;;;;;;;16.05;100.00;99866.75;4975807;28;20204;-74
2022/09/09 04:34:48;;;;;;;1.60;0.87;;;;;;;16.07;100.00;99865.81;4976715;28;20178;-75
2022/09/09 04:37:14;;;;;;;1.73;0.80;;;;;;;16.09;100.00;99871.81;4975913;28;20591;-76
2022/09/09 04:39:39;;;;;;;2.47;0.93;;;;;;;16.11;100.00;99869.13;4974731;28;20740;-77
2022/09/09 04:42:05;;;;;;;1.47;0.90;;;;;;;16.11;100.00;99875.19;4975788;28;20198;-74
2022/09/09 04:44:30;;;;;;;1.87;0.80;;;;;;;16.12;100.00;99884.72;4983209;28;20295;-75
2022/09/09 04:46:55;;;;;;;1.97;0.80;;;;;;;16.14;100.00;99880.31;4978954;28;20274;-76
2022/09/09 04:49:21;;;;;;;1.73;0.60;;;;;;;16.18;100.00;99890.63;4976888;28;20201;-77
2022/09/09 04:51:49;;;;;;;1.10;0.80;;;;;;;16.21;100.00;99893.13;4974945;28;20190;-74
2022/09/09 04:54:14;;;;;;;1.00;0.63;;;;;;;16.22;100.00;99897.44;4979266;28;20665;-77
2022/09/09 04:56:41;;;;;;;2.10;0.97;;;;;;;16.23;100.00;99896.53;4980094;28;20210;-75
2022/09/09 04:59:06;;;;;;;1.97;0.90;;;;;;;16.22;100.00;99900.88;4982084;28;20183;-75
2022/09/09 05:01:32;;;;;;;1.03;0.80;;;;;;;16.22;100.00;99893.06;4977403;28;20272;-75
2022/09/09 05:03:57;;;;;;;2.17;0.90;;;;;;;16.23;100.00;99893.94;4974396;28;20276;-75
2022/09/09 05:06:23;;;;;;;1.77;0.97;;;;;;;16.24;100.00;99898.25;4972265;28;20677;-75
2022/09/09 05:08:51;;;;;;;1.97;0.80;;;;;;;16.27;100.00;99909.41;4972364;28;20605;-75
2022/09/09 05:11:18;;;;;;;1.20;0.77;;;;;;;16.30;100.00;99901.47;4966349;28;20198;-76
2022/09/09 05:13:44;;;;;;;1.03;0.80;;;;;;;16.33;100.00;99905.69;4971734;28;20198;-76
2022/09/09 05:16:13;;;;;;;0.60;0.53;;;;;;;16.35;100.00;99903.88;4973859;28;20170;-75
2022/09/09 05:18:39;;;;;;;1.53;0.70;;;;;;;16.39;100.00;99909.81;4973803;28;20190;-74
2022/09/09 05:21:06;;;;;;;1.10;0.80;;;;;;;16.40;100.00;99904.56;4973457;28;20544;-76
2022/09/09 05:23:31;;;;;;;1.07;0.60;;;;;;;16.43;100.00;99903.59;4972823;28;20278;-74
2022/09/09 05:25:57;;;;;;;1.53;0.97;;;;;;;16.46;100.00;99908.69;4973458;28;20204;-74
2022/09/09 05:28:25;;;;;;;1.97;0.73;;;;;;;16.48;100.00;99909.50;4971207;28;20321;-74
2022/09/09 05:31:04;;;;;;;0.90;0.60;;;;;;;16.52;100.00;99907.59;4959087;28;20674;-75
2022/09/09 05:33:30;;;;;;;1.33;0.90;;;;;;;16.53;100.00;99909.31;4972874;28;20453;-77
2022/09/09 05:36:07;;;;;;;1.80;1.00;;;;;;;16.51;100.00;99908.50;4981154;28;20276;-75
2022/09/09 05:38:34;;;;;;;1.73;1.10;;;;;;;16.48;100.00;99919.06;4978288;28;20543;-72
2022/09/09 05:41:00;;;;;;;2.20;0.73;;;;;;;16.49;100.00;99913.78;4985303;28;20185;-78
2022/09/09 05:43:27;;;;;;;2.20;0.80;;;;;;;16.56;100.00;99917.84;4977282;28;20208;-75
2022/09/09 05:46:07;;;;;;;2.13;1.00;;;;;;;16.73;100.00;99924.16;4983147;28;20237;-75
2022/09/09 05:48:34;;;;;;;1.43;0.93;;;;;;;17.04;100.00;99909.88;4974743;28;20196;-78
2022/09/09 05:51:02;;;;;;;1.70;1.00;;;;;;;17.49;100.00;99918.41;4983349;28;20203;-77
2022/09/09 05:53:32;;;;;;;1.60;0.80;;;;;;;17.73;100.00;99920.88;4980352;28;20199;-75
2022/09/09 05:56:05;;;;;;;0.80;0.70;;;;;;;17.77;100.00;99927.69;4970233;28;20194;-76
2022/09/09 05:58:34;;;;;;;1.27;0.70;;;;;;;17.70;100.00;99921.00;4965915;28;20194;-74
2022/09/09 06:01:07;;;;;;;1.80;0.80;;;;;;;17.62;100.00;99924.81;4975846;28;20247;-76
2022/09/09 06:03:35;;;;;;;1.33;1.00;;;;;;;17.58;100.00;99922.41;4979530;28;20241;-79
2022/09/09 06:06:05;;;;;;;2.03;0.90;;;;;;;17.55;100.00;99920.78;4982219;28;20341;-76
2022/09/09 06:08:31;;;;;;;1.40;0.70;;;;;;;17.56;100.00;99919.84;4968470;28;20201;-76
2022/09/09 06:11:11;;;;;;;1.83;0.90;;;;;;;17.60;100.00;99917.94;4976545;28;20191;-76
2022/09/09 06:13:38;;;;;;;1.00;0.70;;;;;;;17.61;100.00;99920.50;4979002;28;20198;-74
2022/09/09 06:16:04;;;;;;;1.10;0.80;;;;;;;17.62;100.00;99926.59;4969431;28;20204;-78
2022/09/09 06:18:30;;;;;;;1.53;0.80;;;;;;;17.63;100.00;99920.44;4986896;28;20305;-75
2022/09/09 06:21:04;;;;;;;3.03;1.00;;;;;;;17.65;100.00;99916.81;4975305;28;20768;-75
2022/09/09 06:23:30;;;;;;;2.50;1.00;;;;;;;17.64;100.00;99915.13;4976254;28;20396;-76
2022/09/09 06:26:02;;;;;;;1.63;0.90;;;;;;;17.70;100.00;99918.41;4980989;28;20729;-75
2022/09/09 06:28:27;;;;;;;1.53;0.90;;;;;;;17.76;100.00;99918.13;4985141;28;20211;-76
2022/09/09 06:31:04;;;;;;;1.87;0.70;;;;;;;17.86;100.00;99908.06;4976227;28;20247;-75
2022/09/09 06:33:34;;;;;;;1.93;0.67;;;;;;;17.97;100.00;99908.44;4971421;28;20667;-74
2022/09/09 06:36:01;;;;;;;2.30;1.13;;;;;;;18.08;100.00;99916.69;4981799;28;20215;-75
2022/09/09 06:38:27;;;;;;;2.77;0.80;;;;;;;18.19;100.00;99908.34;4976408;28;20400;-74
2022/09/09 06:40:58;;;;;;;2.90;0.93;;;;;;;18.33;100.00;99912.06;4979006;28;20281;-76
2022/09/09 06:43:27;;;;;;;2.27;1.00;;;;;;;18.46;100.00;99914.94;4968702;28;20187;-74
2022/09/09 06:46:22;;;;;;;1.80;1.00;;;;;;;18.62;100.00;99908.03;4970195;28;20229;-74
2022/09/09 06:48:48;;;;;;;1.37;0.80;;;;;;;18.93;100.00;99918.81;4962750;28;20251;-75
2022/09/09 06:51:14;;;;;;;2.10;1.00;;;;;;;19.40;100.00;99912.09;4981721;28;20190;-76
2022/09/09 06:53:41;;;;;;;2.17;0.80;;;;;;;19.69;100.00;99909.72;4967470;28;20196;-77
2022/09/09 06:56:32;;;;;;;1.20;0.73;;;;;;;19.77;100.00;99913.63;4971286;28;20727;-76
2022/09/09 06:59:00;;;;;;;0.93;0.60;;;;;;;19.73;100.00;99908.63;4979549;28;20200;-76
2022/09/09 07:01:28;;;;;;;1.83;0.63;;;;;;;19.66;100.00;99923.84;4973018;28;20201;-76
2022/09/09 07:03:57;;;;;;;2.40;1.03;;;;;;;19.63;100.00;99922.25;4975039;28;20197;-75
2022/09/09 07:06:26;;;;;;;1.40;0.70;;;;;;;19.63;100.00;99918.75;4971449;28;20217;-75
2022/09/09 07:08:59;;;;;;;3.13;0.97;;;;;;;19.67;100.00;99922.06;4976685;28;20284;-76
2022/09/09 07:11:33;;;;;;;2.30;1.00;;;;;;;19.63;100.00;99924.88;4970713;28;20194;-76
2022/09/09 07:13:59;;;;;;;2.57;1.10;;;;;;;19.53;100.00;99922.81;4975271;28;20189;-73
2022/09/09 07:16:27;;;;;;;1.20;0.80;;;;;;;19.37;100.00;99923.59;4970843;28;20200;-75
2022/09/09 07:18:57;;;;;;;2.10;1.10;;;;;;;19.21;100.00;99931.41;4980125;28;20204;-78
2022/09/09 07:21:24;;;;;;;2.33;0.90;;;;;;;19.13;100.00;99928.31;4985431;28;20193;-76
2022/09/09 07:23:49;;;;;;;1.50;0.90;;;;;;;19.45;100.00;99931.09;4965438;28;20193;-77
2022/09/09 07:26:19;;;;;;;1.90;0.97;;;;;;;20.08;100.00;99921.69;4970925;28;20220;-76
2022/09/09 07:28:44;;;;;;;1.13;0.83;;;;;;;20.53;100.00;99921.81;4980622;28;20210;-75
2022/09/09 07:31:20;;;;;;;2.60;0.90;;;;;;;20.72;100.00;99921.63;4977762;28;20663;-77
2022/09/09 07:33:47;;;;;;;2.30;1.03;;;;;;;20.87;100.00;99927.81;4987732;28;20196;-74
2022/09/09 07:36:15;;;;;;;2.93;1.20;;;;;;;21.01;100.00;99925.22;4964567;28;20669;-75
2022/09/09 07:38:44;;;;;;;2.00;0.90;;;;;;;21.18;99.68;99926.03;4972130;28;20193;-73
2022/09/09 07:41:12;;;;;;;2.73;1.07;;;;;;;21.47;98.79;99926.06;4972926;28;20209;-75
2022/09/09 07:43:42;;;;;;;1.83;1.10;;;;;;;21.76;97.13;99926.09;4969289;28;20181;-76
2022/09/09 07:46:09;;;;;;;1.87;1.10;;;;;;;21.97;96.01;99936.25;4973001;28;20212;-74
2022/09/09 07:48:35;;;;;;;3.33;1.10;;;;;;;22.01;96.19;99932.47;4969291;28;20186;-77
2022/09/09 07:51:11;;;;;;;1.73;0.93;;;;;;;21.97;96.35;99934.44;4970592;28;20196;-75
2022/09/09 07:53:38;;;;;;;1.87;1.10;;;;;;;21.96;95.49;99926.66;4971171;28;20190;-77
2022/09/09 07:56:09;;;;;;;2.03;1.20;;;;;;;21.99;95.99;99929.94;4971905;28;20173;-75
2022/09/09 07:58:37;;;;;;;1.37;1.00;;;;;;;22.01;96.25;99933.31;4969905;28;20194;-76
2022/09/09 08:01:17;;;;;;;4.00;0.93;;;;;;;22.09;95.29;99932.84;4974070;28;20182;-76
2022/09/09 08:03:44;;;;;;;2.03;1.10;;;;;;;22.09;95.06;99932.84;4973305;28;20248;-75
2022/09/09 08:06:10;;;;;;;1.63;1.10;;;;;;;22.26;94.80;99939.69;4969464;28;20201;-75
2022/09/09 08:08:36;;;;;;;2.57;1.10;;;;;;;22.41;91.14;99931.72;4972941;28;20231;-77
2022/09/09 08:11:15;;;;;;;3.00;1.10;;;;;;;22.18;91.50;99934.06;4977807;28;20217;-73
2022/09/09 08:13:42;;;;;;;3.13;1.43;;;;;;;21.86;92.40;99945.66;4967709;28;20182;-77
2022/09/09 08:16:14;;;;;;;2.90;1.10;;;;;;;21.56;93.14;99951.81;4969430;28;20186;-76
2022/09/09 08:18:39;;;;;;;2.60;1.10;;;;;;;21.34;94.86;99964.59;4968616;28;20185;-75
2022/09/09 08:21:13;;;;;;;2.63;1.20;;;;;;;21.11;96.14;99979.94;4973908;28;20323;-76
2022/09/09 08:23:42;;;;;;;1.90;1.27;;;;;;;20.88;98.25;99976.84;4966873;28;20186;-78
2022/09/09 08:26:13;;;;;;;2.80;1.00;;;;;;;20.67;99.99;99963.94;4968228;28;20709;-77
2022/09/09 08:28:39;;;;;;;2.20;1.17;;;;;;;20.58;100.00;99960.97;4968611;28;20324;-74
2022/09/09 08:31:10;;;;;;;2.13;0.90;;;;;;;20.54;100.00;99963.81;4974458;28;20185;-75
2022/09/09 08:33:37;;;;;;;1.93;1.00;;;;;;;20.63;100.00;99961.59;4969773;28;20197;-79
2022/09/09 08:36:03;;;;;;;1.40;1.00;;;;;;;20.81;100.00;99970.22;4964125;28;20190;-75
2022/09/09 08:38:28;;;;;;;1.53;1.00;;;;;;;21.00;100.00;99975.31;4974465;28;20752;-74
2022/09/09 08:41:00;;;;;;;2.97;1.20;;;;;;;21.25;100.00;99973.88;4967446;28;20183;-76
2022/09/09 08:43:28;;;;;;;1.27;0.80;;;;;;;21.49;100.00;99974.22;4969177;28;20211;-76
2022/09/09 08:46:20;;;;;;;2.20;1.10;;;;;;;21.63;100.00;99976.03;4973611;28;20248;-77
2022/09/09 08:48:59;;;;;;;2.23;1.10;;;;;;;21.68;100.00;99973.97;4971030;28;20289;-74
2022/09/09 08:51:30;;;;;;;2.30;1.20;;;;;;;21.68;100.00;99973.13;4971777;28;20189;-76
2022/09/09 08:54:00;;;;;;;2.07;1.20;;;;;;;21.70;100.00;99980.00;4971492;28;20762;-76
2022/09/09 08:56:28;;;;;;;2.67;1.23;;;;;;;21.73;100.00;99981.59;4968225;28;20202;-76
2022/09/09 08:58:55;;;;;;;2.27;1.03;;;;;;;21.77;100.00;99994.50;4971908;28;20186;-76
2022/09/09 09:01:29;;;;;;;2.00;1.00;;;;;;;21.88;100.00;99987.72;4981287;28;20192;-78
2022/09/09 09:04:29;;;;;;;1.70;1.07;;;;;;;22.07;100.00;99980.38;4970058;28;20204;-78
2022/09/09 09:07:14;;;;;;;3.67;1.40;;;;;;;22.19;100.00;99983.19;4970868;28;20236;-77
2022/09/09 09:09:48;;;;;;;1.60;0.90;;;;;;;22.19;100.00;99980.56;4970676;28;20204;-75
2022/09/09 09:12:23;;;;;;;1.40;0.80;;;;;;;22.22;100.00;99970.66;4966798;28;20185;-77
2022/09/09 09:14:49;;;;;;;2.03;1.03;;;;;;;22.36;100.00;99971.56;4970678;28;20232;-76
2022/09/09 09:17:17;;;;;;;2.63;0.80;;;;;;;22.56;100.00;99975.59;4971348;28;20210;-73
2022/09/09 09:19:44;;;;;;;1.40;0.87;;;;;;;22.68;99.81;99960.78;4969659;28;20190;-76
2022/09/09 09:22:31;;;;;;;2.03;1.33;;;;;;;22.76;99.55;99960.28;4973775;28;20241;-75
2022/09/09 09:25:03;;;;;;;4.13;1.50;;;;;;;22.88;99.66;99969.19;4973947;28;20216;-77
2022/09/09 09:27:35;;;;;;;2.93;1.30;;;;;;;22.94;99.69;99963.50;4971250;28;20218;-75
2022/09/09 09:30:12;;;;;;;2.63;0.97;;;;;;;23.01;99.27;99966.56;4970932;28;20193;-75
2022/09/09 09:32:44;;;;;;;2.53;1.27;;;;;;;23.08;98.52;99971.34;4976634;28;20188;-76
2022/09/09 09:35:13;;;;;;;3.17;1.20;;;;;;;23.17;96.99;99961.13;4978895;28;20718;-75
2022/09/09 09:37:41;;;;;;;1.90;1.17;;;;;;;23.14;96.53;99964.84;4969519;28;21016;-76
2022/09/09 09:40:18;;;;;;;1.53;1.00;;;;;;;23.14;96.40;99970.13;4970900;28;20190;-75
2022/09/09 09:43:07;;;;;;;1.77;0.83;;;;;;;23.04;96.29;99967.25;4972035;28;20657;-76
2022/09/09 09:45:44;;;;;;;2.03;0.90;;;;;;;22.93;96.64;99967.94;4971443;28;20749;-75
2022/09/09 09:48:12;;;;;;;1.50;1.00;;;;;;;22.88;96.33;99974.47;4987963;28;20240;-76
2022/09/09 09:51:05;;;;;;;2.60;1.20;;;;;;;22.81;95.65;99972.22;4969868;28;20189;-76
2022/09/09 09:53:33;;;;;;;2.10;1.27;;;;;;;22.69;95.75;99968.59;4978759;28;20209;-75
2022/09/09 09:55:58;;;;;;;2.00;1.03;;;;;;;22.58;92.34;99965.81;4966106;28;20744;-76
2022/09/09 09:58:26;;;;;;;1.70;1.20;;;;;;;22.57;93.09;99972.03;4971502;28;20237;-75
2022/09/09 10:00:53;;;;;;;2.80;1.30;;;;;;;22.62;93.50;99966.44;4973207;28;20569;-75
2022/09/09 10:03:28;;;;;;;2.20;1.37;;;;;;;22.54;93.32;99969.56;4983934;28;20181;-75
2022/09/09 10:05:56;;;;;;;2.27;1.17;;;;;;;22.40;93.86;99965.16;4971838;28;20205;-76
2022/09/09 10:08:23;;;;;;;1.77;1.10;;;;;;;22.42;93.21;99963.31;4981044;28;20221;-74
2022/09/09 10:11:07;;;;;;;2.87;1.27;;;;;;;22.51;91.51;99964.53;4979747;28;20658;-75
2022/09/09 10:14:02;;;;;;;3.17;1.30;;;;;;;22.56;92.18;99965.06;4971348;28;20744;-75
2022/09/09 10:16:27;;;;;;;2.33;1.30;;;;;;;22.71;92.12;99957.09;4970643;28;20197;-75
2022/09/09 10:19:12;;;;;;;2.33;1.20;;;;;;;22.88;92.08;99953.38;4972530;28;20212;-75
2022/09/09 10:22:22;;;;;;;2.30;1.07;;;;;;;23.04;91.63;99951.41;4975582;28;20235;-75
2022/09/09 10:25:25;;;;;;;2.70;1.40;;;;;;;23.23;90.96;99947.53;4929741;29;20199;-76
2022/09/09 10:28:49;;;;;;;2.17;1.10;;;;;;;23.31;90.83;99942.59;4969169;28;20209;-75
2022/09/09 10:31:29;;;;;;;1.60;1.00;;;;;;;23.48;90.64;99944.06;4911816;29;20421;-76
2022/09/09 10:34:25;;;;;;;1.70;0.90;;;;;;;23.67;90.26;99948.09;4974198;28;20198;-75
2022/09/09 10:36:51;;;;;;;2.07;1.07;;;;;;;23.90;89.60;99944.66;4973920;28;20221;-75
2022/09/09 10:39:22;;;;;;;2.07;1.10;;;;;;;23.98;89.50;99948.63;4981093;28;20252;-75
2022/09/09 10:42:02;;;;;;;2.23;1.30;;;;;;;24.11;89.39;99945.97;4981213;28;20197;-75
2022/09/09 10:44:30;;;;;;;3.10;1.20;;;;;;;24.29;89.49;99941.97;4992997;28;20704;-76
2022/09/09 10:47:11;;;;;;;2.90;1.20;;;;;;;24.13;88.32;99944.03;4981604;28;20218;-75
2022/09/09 10:49:36;;;;;;;3.33;1.30;;;;;;;23.68;88.41;99942.69;4984118;28;20191;-75
2022/09/09 10:52:15;;;;;;;2.63;1.10;;;;;;;23.39;89.51;99950.81;4976032;28;20780;-74
2022/09/09 10:54:56;;;;;;;2.50;1.00;;;;;;;23.34;91.01;99944.19;4969281;28;20194;-74
2022/09/09 10:57:33;;;;;;;4.83;1.43;;;;;;;23.34;89.64;99950.31;4978101;28;20221;-75
2022/09/09 11:00:05;;;;;;;1.73;1.27;;;;;;;23.21;88.92;99946.81;4982305;28;20531;-75
2022/09/09 11:02:33;;;;;;;2.13;1.20;;;;;;;23.07;90.07;99939.78;4979510;28;20663;-74
2022/09/09 11:05:04;;;;;;;1.63;1.03;;;;;;;23.16;91.24;99940.97;4977645;28;20201;-75
2022/09/09 11:07:55;;;;;;;2.00;1.20;;;;;;;23.32;90.97;99940.78;4983725;28;20312;-76
2022/09/09 11:10:40;;;;;;;2.23;1.10;;;;;;;23.42;90.99;99934.78;4973289;28;20201;-75
2022/09/09 11:13:21;;;;;;;4.07;1.23;;;;;;;23.43;91.26;99935.66;4978919;28;20185;-76
2022/09/09 11:15:51;;;;;;;1.83;0.80;;;;;;;23.35;91.29;99936.16;4976526;28;20182;-74
2022/09/09 11:18:22;;;;;;;2.27;1.17;;;;;;;23.21;90.97;99936.25;4966198;28;20256;-74
2022/09/09 11:21:00;;;;;;;1.67;0.83;;;;;;;22.99;91.32;99927.94;4976108;28;20190;-73
2022/09/09 11:23:40;;;;;;;2.60;1.20;;;;;;;22.76;91.97;99940.03;4975119;28;20277;-77
2022/09/09 11:26:11;;;;;;;3.30;1.20;;;;;;;22.54;90.92;99932.66;4971813;28;20208;-72
2022/09/09 11:28:55;;;;;;;3.67;1.13;;;;;;;22.39;91.55;99934.47;4969156;28;20201;-74
2022/09/09 11:31:21;;;;;;;2.70;1.20;;;;;;;22.30;92.17;99935.06;4965175;28;20285;-74
2022/09/09 11:34:24;;;;;;;1.97;1.20;;;;;;;22.27;92.72;99922.09;4963975;28;20288;-74
2022/09/09 11:36:57;;;;;;;1.83;0.83;;;;;;;22.56;92.88;99932.56;4981616;28;20316;-75
2022/09/09 11:39:47;;;;;;;2.07;1.10;;;;;;;22.97;91.45;99921.94;4976570;28;20203;-76
2022/09/09 11:42:12;;;;;;;3.77;1.50;;;;;;;23.37;90.38;99914.94;4974911;28;20193;-74
2022/09/09 11:44:38;;;;;;;3.63;1.07;;;;;;;23.70;89.77;99906.44;4964946;28;20216;-75
2022/09/09 11:47:03;;;;;;;1.97;0.97;;;;;;;23.94;89.21;99897.75;4980931;28;20205;-74
2022/09/09 11:49:38;;;;;;;2.20;0.80;;;;;;;24.04;87.55;99896.16;4974257;28;20182;-75